Time;durP1;ratioP1;P1;durP2;ratioP2;P2;SDS_P1;SDS_P2;PMS_P1;PMS_P2;Temp;Humidity;BMP_temperature;BMP_pressure;BME280_temperature;BME280_humidity;BME280_pressure;Samples;Min_cycle;Max_cycle;Signal;HPM_P1;HPM_P2
2022/06/16 00:01:59;;;;;;;10.00;5.80;;;;;;;;;;4999874;28;20526;-86
2022/06/16 00:04:26;;;;;;;7.43;6.73;;;;;;;;;;4999713;28;20885;-86
2022/06/16 00:06:55;;;;;;;7.03;6.13;;;;;;;;;;5000237;28;20412;-86
2022/06/16 00:09:21;;;;;;;8.63;6.13;;;;;;;;;;4999638;28;20480;-86
2022/06/16 00:11:47;;;;;;;6.90;6.20;;;;;;;;;;4998893;28;20436;-86
2022/06/16 00:14:13;;;;;;;7.30;6.20;;;;;;;;;;4999780;28;20405;-85
2022/06/16 00:16:39;;;;;;;8.43;6.00;;;;;;;;;;4999696;28;20419;-86
2022/06/16 00:19:05;;;;;;;7.57;5.67;;;;;;;;;;5000230;28;20809;-85
2022/06/16 00:21:31;;;;;;;6.57;5.60;;;;;;;;;;5000892;28;20455;-86
2022/06/16 00:23:57;;;;;;;6.53;5.57;;;;;;;;;;5000344;28;20423;-85
2022/06/16 00:26:24;;;;;;;9.70;6.13;;;;;;;;;;5001657;28;20416;-85
2022/06/16 00:28:51;;;;;;;10.37;6.00;;;;;;;;;;5001366;28;20451;-85
2022/06/16 00:31:18;;;;;;;10.53;6.20;;;;;;;;;;5000840;28;20408;-85
2022/06/16 00:33:44;;;;;;;7.33;6.60;;;;;;;;;;5000185;28;20408;-86
2022/06/16 00:36:10;;;;;;;7.53;6.60;;;;;;;;;;5000189;28;20765;-83
2022/06/16 00:38:38;;;;;;;8.00;6.30;;;;;;;;;;5003040;28;20431;-83
2022/06/16 00:41:04;;;;;;;8.00;6.43;;;;;;;;;;5001685;28;20911;-85
2022/06/16 00:43:30;;;;;;;9.40;6.23;;;;;;;;;;4999835;28;20490;-84
2022/06/16 00:45:59;;;;;;;6.50;5.73;;;;;;;;;;5000089;28;20404;-85
2022/06/16 00:48:44;;;;;;;9.20;6.70;;;;;;;;;;4998929;28;20899;-85
2022/06/16 00:51:13;;;;;;;6.63;5.53;;;;;;;;;;4999459;28;20442;-85
2022/06/16 00:53:40;;;;;;;6.97;6.00;;;;;;;;;;4998669;28;20424;-85
2022/06/16 00:56:08;;;;;;;6.30;5.70;;;;;;;;;;4999959;28;20487;-85
2022/06/16 00:58:35;;;;;;;6.30;5.70;;;;;;;;;;4998593;28;20443;-86
2022/06/16 01:01:01;;;;;;;8.73;6.33;;;;;;;;;;5000657;28;20396;-85
2022/06/16 01:06:30;;;;;;;5.97;5.37;;;;;;;;;;5000856;28;20387;-85
2022/06/16 01:09:02;;;;;;;13.13;6.20;;;;;;;;;;5013216;28;20416;-84
2022/06/16 01:14:31;;;;;;;6.53;5.63;;;;;;;;;;5006185;28;20518;-85
2022/06/16 01:17:01;;;;;;;5.60;5.10;;;;;;;;;;4976105;28;20425;-82
2022/06/16 01:19:38;;;;;;;9.43;6.43;;;;;;;;;;4976805;29;20894;-83
2022/06/16 01:22:09;;;;;;;7.13;6.10;;;;;;;;;;4977649;29;20772;-83
2022/06/16 01:24:54;;;;;;;7.03;6.03;;;;;;;;;;4977666;29;20485;-83
2022/06/16 01:27:28;;;;;;;8.03;6.20;;;;;;;;;;4977113;29;20505;-83
2022/06/16 01:29:57;;;;;;;8.73;5.30;;;;;;;;;;4977193;29;20386;-83
2022/06/16 01:32:42;;;;;;;11.83;6.10;;;;;;;;;;4977059;29;20418;-83
2022/06/16 01:35:17;;;;;;;8.40;6.03;;;;;;;;;;4968770;29;20460;-85
2022/06/16 01:38:02;;;;;;;6.77;6.07;;;;;;;;;;4964506;29;20441;-85
2022/06/16 01:40:49;;;;;;;8.10;6.07;;;;;;;;;;4964382;29;20452;-84
2022/06/16 01:43:15;;;;;;;7.60;6.90;;;;;;;;;;4963570;29;20421;-85
2022/06/16 01:45:59;;;;;;;8.87;6.87;;;;;;;;;;4964273;29;20410;-85
2022/06/16 01:48:26;;;;;;;6.97;6.37;;;;;;;;;;4978387;29;20428;-86
2022/06/16 01:50:57;;;;;;;8.00;5.77;;;;;;;;;;4968894;29;20429;-83
2022/06/16 01:53:39;;;;;;;6.77;5.50;;;;;;;;;;4963307;29;20457;-83
2022/06/16 01:56:08;;;;;;;6.63;5.83;;;;;;;;;;4963799;28;20413;-82
2022/06/16 01:58:35;;;;;;;9.57;5.97;;;;;;;;;;4962605;29;20441;-85
2022/06/16 02:01:04;;;;;;;6.00;5.40;;;;;;;;;;4963361;29;20511;-83
2022/06/16 02:03:32;;;;;;;6.77;4.73;;;;;;;;;;4963004;29;20410;-83
2022/06/16 02:06:01;;;;;;;6.87;5.57;;;;;;;;;;4964238;29;20497;-84
2022/06/16 02:08:32;;;;;;;7.97;6.10;;;;;;;;;;4964802;28;20437;-82
2022/06/16 02:11:00;;;;;;;7.43;6.10;;;;;;;;;;4965014;29;20417;-85
2022/06/16 02:13:28;;;;;;;8.23;6.10;;;;;;;;;;4964538;29;20461;-87
2022/06/16 02:16:00;;;;;;;7.37;6.60;;;;;;;;;;4962295;29;20937;-87
2022/06/16 02:18:33;;;;;;;10.80;6.50;;;;;;;;;;4962807;29;20509;-86
2022/06/16 02:21:02;;;;;;;9.17;6.20;;;;;;;;;;4962733;29;20474;-86
2022/06/16 02:23:28;;;;;;;6.87;6.03;;;;;;;;;;4960682;29;20410;-85
2022/06/16 02:25:55;;;;;;;6.90;5.97;;;;;;;;;;4960251;28;20437;-83
2022/06/16 02:28:22;;;;;;;8.10;5.90;;;;;;;;;;4959950;29;20446;-82
2022/06/16 02:30:51;;;;;;;6.80;5.30;;;;;;;;;;4960903;29;20407;-83
2022/06/16 02:33:28;;;;;;;7.97;5.30;;;;;;;;;;4960351;29;20452;-83
2022/06/16 02:36:02;;;;;;;7.77;5.57;;;;;;;;;;4960678;29;20394;-83
2022/06/16 02:38:31;;;;;;;5.60;4.30;;;;;;;;;;4960213;29;20425;-83
2022/06/16 02:41:03;;;;;;;6.13;5.53;;;;;;;;;;4960497;29;20402;-83
2022/06/16 02:43:51;;;;;;;7.80;5.27;;;;;;;;;;4959616;29;20413;-85
2022/06/16 02:46:40;;;;;;;6.03;5.43;;;;;;;;;;4961570;29;20473;-84
2022/06/16 02:49:12;;;;;;;6.33;5.13;;;;;;;;;;4959140;29;20501;-84
2022/06/16 02:51:43;;;;;;;5.90;5.23;;;;;;;;;;4972052;28;20868;-84
2022/06/16 02:54:12;;;;;;;6.10;5.50;;;;;;;;;;4983767;28;20433;-85
2022/06/16 02:56:56;;;;;;;6.30;4.70;;;;;;;;;;4981370;28;20428;-85
2022/06/16 02:59:25;;;;;;;6.80;5.37;;;;;;;;;;4984135;28;20867;-85
2022/06/16 03:01:52;;;;;;;5.80;5.20;;;;;;;;;;4985134;28;20831;-85
2022/06/16 03:04:18;;;;;;;6.13;5.23;;;;;;;;;;4982853;28;20468;-86
2022/06/16 03:06:45;;;;;;;6.17;5.50;;;;;;;;;;4982383;28;20414;-85
2022/06/16 03:09:11;;;;;;;6.70;5.43;;;;;;;;;;4981512;28;20437;-85
2022/06/16 03:11:38;;;;;;;6.40;5.80;;;;;;;;;;4981743;28;20441;-85
2022/06/16 03:14:04;;;;;;;5.80;5.00;;;;;;;;;;4981921;28;20409;-85
2022/06/16 03:16:31;;;;;;;7.37;4.73;;;;;;;;;;4981960;28;20407;-85
2022/06/16 03:18:57;;;;;;;7.30;4.30;;;;;;;;;;4980453;28;20437;-85
2022/06/16 03:21:23;;;;;;;8.53;5.43;;;;;;;;;;4982032;28;20456;-85
2022/06/16 03:23:49;;;;;;;9.30;5.00;;;;;;;;;;4980973;28;20464;-86
2022/06/16 03:26:15;;;;;;;8.83;5.40;;;;;;;;;;4980479;28;20473;-85
2022/06/16 03:28:41;;;;;;;8.40;5.47;;;;;;;;;;5038629;23;20494;-87
2022/06/16 03:31:07;;;;;;;5.80;4.93;;;;;;;;;;5016730;28;20412;-87
2022/06/16 03:33:33;;;;;;;7.93;5.50;;;;;;;;;;4993582;28;20476;-87
2022/06/16 03:35:59;;;;;;;5.50;4.80;;;;;;;;;;5001993;28;20826;-87
2022/06/16 03:38:43;;;;;;;5.47;4.40;;;;;;;;;;4986328;28;20436;-87
2022/06/16 03:41:10;;;;;;;5.90;4.97;;;;;;;;;;5000837;28;20408;-87
2022/06/16 03:43:36;;;;;;;5.33;4.80;;;;;;;;;;5002602;28;20404;-86
2022/06/16 03:46:03;;;;;;;4.93;4.30;;;;;;;;;;5002303;28;20487;-87
2022/06/16 03:48:29;;;;;;;6.53;5.23;;;;;;;;;;5001543;28;20472;-87
2022/06/16 03:50:55;;;;;;;5.63;5.13;;;;;;;;;;5001551;28;20559;-86
2022/06/16 03:53:21;;;;;;;5.37;4.40;;;;;;;;;;5002011;28;20451;-86
2022/06/16 03:55:47;;;;;;;6.80;4.93;;;;;;;;;;5001688;28;20420;-86
2022/06/16 03:58:13;;;;;;;4.97;4.30;;;;;;;;;;5002692;28;20428;-87
2022/06/16 04:00:40;;;;;;;6.33;5.00;;;;;;;;;;5003567;28;20471;-87
2022/06/16 04:05:50;;;;;;;4.40;4.00;;;;;;;;;;5002615;28;20431;-86
2022/06/16 04:08:19;;;;;;;6.17;5.13;;;;;;;;;;5000973;28;20714;-85
2022/06/16 04:10:45;;;;;;;7.27;4.80;;;;;;;;;;5000076;28;20468;-87
2022/06/16 04:13:12;;;;;;;5.10;4.60;;;;;;;;;;5002289;28;20991;-86
2022/06/16 04:15:38;;;;;;;5.90;5.30;;;;;;;;;;5001532;28;20825;-87
2022/06/16 04:18:04;;;;;;;6.33;4.73;;;;;;;;;;5001351;28;20411;-87
2022/06/16 04:20:30;;;;;;;6.13;4.87;;;;;;;;;;4998971;28;20438;-86
2022/06/16 04:22:56;;;;;;;6.30;4.40;;;;;;;;;;4998375;28;20435;-87
2022/06/16 04:25:30;;;;;;;8.90;5.10;;;;;;;;;;4997531;28;20908;-85
2022/06/16 04:27:58;;;;;;;5.60;4.40;;;;;;;;;;4997786;28;20903;-86
2022/06/16 04:30:24;;;;;;;7.73;4.63;;;;;;;;;;4998575;28;20495;-87
2022/06/16 04:32:50;;;;;;;8.07;5.00;;;;;;;;;;5001109;28;20525;-86
2022/06/16 04:35:16;;;;;;;6.10;4.60;;;;;;;;;;5018523;28;20420;-88
2022/06/16 04:37:42;;;;;;;6.90;4.80;;;;;;;;;;5013270;28;20460;-87
2022/06/16 04:40:09;;;;;;;6.97;4.97;;;;;;;;;;5001072;28;20420;-87
2022/06/16 04:42:35;;;;;;;5.60;4.90;;;;;;;;;;5001112;28;20462;-86
2022/06/16 04:45:01;;;;;;;5.73;4.57;;;;;;;;;;5001163;28;20408;-87
2022/06/16 04:47:27;;;;;;;9.20;5.17;;;;;;;;;;5000562;28;20410;-87
2022/06/16 04:49:53;;;;;;;7.87;4.40;;;;;;;;;;4999184;28;20523;-87
2022/06/16 04:52:19;;;;;;;7.77;5.00;;;;;;;;;;4998652;28;20910;-87
2022/06/16 04:54:46;;;;;;;8.00;5.63;;;;;;;;;;4998990;28;20842;-86
2022/06/16 04:57:12;;;;;;;5.93;4.40;;;;;;;;;;4999282;28;20408;-87
2022/06/16 04:59:39;;;;;;;6.20;5.60;;;;;;;;;;5006986;28;20436;-87
2022/06/16 05:02:05;;;;;;;6.53;4.90;;;;;;;;;;4999282;28;20446;-87
2022/06/16 05:04:31;;;;;;;8.10;5.33;;;;;;;;;;4999959;28;20428;-87
2022/06/16 05:06:57;;;;;;;9.10;5.10;;;;;;;;;;4999651;28;20823;-87
2022/06/16 05:09:23;;;;;;;5.73;4.47;;;;;;;;;;4998435;28;20440;-87
2022/06/16 05:11:50;;;;;;;6.70;4.80;;;;;;;;;;4998479;28;20499;-87
2022/06/16 05:14:16;;;;;;;6.67;4.80;;;;;;;;;;4999080;28;20416;-87
2022/06/16 05:16:42;;;;;;;6.23;5.07;;;;;;;;;;4998711;28;20404;-86
2022/06/16 05:19:08;;;;;;;6.10;4.23;;;;;;;;;;5004761;28;20432;-87
2022/06/16 05:21:34;;;;;;;4.57;4.10;;;;;;;;;;4999367;28;20412;-86
2022/06/16 05:24:00;;;;;;;6.60;4.13;;;;;;;;;;4998318;28;20511;-87
2022/06/16 05:26:28;;;;;;;4.97;4.07;;;;;;;;;;4999861;28;20406;-87
2022/06/16 05:28:54;;;;;;;7.93;5.23;;;;;;;;;;4998246;28;20440;-86
2022/06/16 05:31:20;;;;;;;6.63;4.93;;;;;;;;;;4999911;28;20472;-87
2022/06/16 05:33:46;;;;;;;7.87;5.20;;;;;;;;;;4998634;28;20459;-87
2022/06/16 05:36:13;;;;;;;8.13;4.57;;;;;;;;;;5000375;28;20415;-87
2022/06/16 05:38:39;;;;;;;5.33;4.00;;;;;;;;;;5001919;28;20785;-87
2022/06/16 05:41:07;;;;;;;5.90;4.13;;;;;;;;;;5009417;28;20423;-87
2022/06/16 05:43:34;;;;;;;5.87;3.87;;;;;;;;;;5006482;28;20916;-86
2022/06/16 05:46:00;;;;;;;7.90;4.47;;;;;;;;;;5002629;28;20470;-86
2022/06/16 05:48:27;;;;;;;6.83;4.50;;;;;;;;;;5003582;28;20440;-87
2022/06/16 05:50:53;;;;;;;7.87;3.70;;;;;;;;;;5004963;28;20463;-88
2022/06/16 05:53:19;;;;;;;5.47;3.80;;;;;;;;;;5003565;28;20459;-88
2022/06/16 05:55:46;;;;;;;4.90;3.70;;;;;;;;;;5005878;28;20420;-88
2022/06/16 05:58:12;;;;;;;6.17;4.27;;;;;;;;;;5005607;28;20432;-85
2022/06/16 06:00:38;;;;;;;6.23;4.40;;;;;;;;;;5000196;28;20935;-87
2022/06/16 06:03:04;;;;;;;6.97;4.17;;;;;;;;;;5001120;28;20412;-87
2022/06/16 06:05:30;;;;;;;6.30;3.70;;;;;;;;;;5000171;28;20440;-87
2022/06/16 06:16:25;;;;;;;8.10;3.80;;;;;;;;;;5001121;28;20404;-87
2022/06/16 06:18:51;;;;;;;6.73;4.80;;;;;;;;;;4999013;28;20460;-87
2022/06/16 06:21:57;;;;;;;9.77;4.30;;;;;;;;;;4999555;28;20412;-87
2022/06/16 06:24:05;;;;;;;5.80;3.80;;;;;;;;;;5000572;28;20412;-87
2022/06/16 06:26:31;;;;;;;6.40;3.70;;;;;;;;;;5001352;28;20400;-87
2022/06/16 06:28:57;;;;;;;5.20;4.43;;;;;;;;;;5000320;28;20546;-86
2022/06/16 06:31:23;;;;;;;5.23;4.13;;;;;;;;;;4999918;28;20400;-87
2022/06/16 06:33:49;;;;;;;5.37;3.90;;;;;;;;;;5000714;28;20452;-87
2022/06/16 06:36:15;;;;;;;6.63;4.10;;;;;;;;;;5001641;28;20413;-87
2022/06/16 06:38:41;;;;;;;6.53;3.90;;;;;;;;;;5002862;28;20490;-86
2022/06/16 06:41:07;;;;;;;5.63;3.87;;;;;;;;;;5003280;28;20415;-87
2022/06/16 06:43:33;;;;;;;9.33;3.87;;;;;;;;;;5003460;28;20423;-86
2022/06/16 06:45:59;;;;;;;5.77;3.70;;;;;;;;;;5003015;28;20418;-88
2022/06/16 06:48:25;;;;;;;6.63;4.20;;;;;;;;;;5019078;28;20438;-83
2022/06/16 06:50:51;;;;;;;6.03;3.87;;;;;;;;;;5002372;28;20438;-86
2022/06/16 06:53:17;;;;;;;8.30;4.23;;;;;;;;;;4994378;28;20614;-87
2022/06/16 06:55:45;;;;;;;7.03;3.80;;;;;;;;;;5021111;28;20416;-88
2022/06/16 06:58:21;;;;;;;5.80;4.53;;;;;;;;;;5019887;28;20839;-87
2022/06/16 07:00:49;;;;;;;8.83;4.50;;;;;;;;;;5012271;28;20461;-87
2022/06/16 07:03:15;;;;;;;6.70;3.70;;;;;;;;;;5019322;28;20424;-87
2022/06/16 07:05:41;;;;;;;6.67;4.30;;;;;;;;;;5019317;28;20407;-86
2022/06/16 07:08:07;;;;;;;10.37;5.27;;;;;;;;;;5002436;28;21040;-87
2022/06/16 07:10:33;;;;;;;9.77;4.17;;;;;;;;;;5004435;28;20919;-87
2022/06/16 07:12:59;;;;;;;10.60;4.30;;;;;;;;;;5002115;28;20447;-87
2022/06/16 07:15:25;;;;;;;9.10;4.57;;;;;;;;;;5001669;28;20477;-87
2022/06/16 07:17:52;;;;;;;6.30;3.77;;;;;;;;;;5014157;28;20431;-88
2022/06/16 07:20:18;;;;;;;8.20;3.50;;;;;;;;;;5035323;28;20454;-88
2022/06/16 07:22:45;;;;;;;8.60;4.67;;;;;;;;;;5001321;28;20407;-85
2022/06/16 07:25:11;;;;;;;6.00;4.17;;;;;;;;;;5019149;28;20438;-85
2022/06/16 07:27:37;;;;;;;8.07;4.30;;;;;;;;;;5001810;28;20423;-85
2022/06/16 07:30:13;;;;;;;6.87;4.23;;;;;;;;;;5018163;28;20439;-86
2022/06/16 07:32:39;;;;;;;8.47;3.83;;;;;;;;;;5000875;28;20454;-86
2022/06/16 07:35:05;;;;;;;7.10;4.47;;;;;;;;;;5018237;28;20405;-85
2022/06/16 07:37:31;;;;;;;5.00;4.10;;;;;;;;;;5000926;28;20415;-86
2022/06/16 07:39:57;;;;;;;6.37;3.87;;;;;;;;;;5018107;28;20428;-86
2022/06/16 07:42:23;;;;;;;5.20;3.60;;;;;;;;;;5000638;28;20802;-86
2022/06/16 07:44:49;;;;;;;5.90;3.80;;;;;;;;;;5000956;28;20415;-86
2022/06/16 07:47:15;;;;;;;7.60;4.30;;;;;;;;;;5018598;28;20434;-86
2022/06/16 07:49:43;;;;;;;7.80;3.97;;;;;;;;;;5019618;28;20427;-86
2022/06/16 07:52:09;;;;;;;7.70;4.30;;;;;;;;;;5019473;28;20545;-87
2022/06/16 07:54:35;;;;;;;9.30;4.03;;;;;;;;;;5050687;28;20458;-87
2022/06/16 07:57:01;;;;;;;5.33;3.60;;;;;;;;;;5038161;28;20407;-85
2022/06/16 07:59:27;;;;;;;7.00;4.20;;;;;;;;;;5023802;28;20422;-85
2022/06/16 08:01:54;;;;;;;9.10;4.77;;;;;;;;;;5025027;28;20823;-84
2022/06/16 08:04:20;;;;;;;5.90;4.37;;;;;;;;;;5021274;28;20423;-85
2022/06/16 08:06:46;;;;;;;11.90;4.53;;;;;;;;;;5005660;28;20444;-85
2022/06/16 08:09:13;;;;;;;5.67;3.77;;;;;;;;;;5024878;28;20486;-85
2022/06/16 08:12:22;;;;;;;7.27;3.70;;;;;;;;;;5005877;28;20427;-85
2022/06/16 08:14:29;;;;;;;6.33;3.93;;;;;;;;;;5005119;28;20931;-86
2022/06/16 08:16:55;;;;;;;11.60;4.20;;;;;;;;;;5022334;28;20442;-86
2022/06/16 08:19:21;;;;;;;7.13;4.10;;;;;;;;;;5005452;28;20997;-87
2022/06/16 08:21:48;;;;;;;9.03;3.87;;;;;;;;;;5006821;28;20419;-86
2022/06/16 08:24:14;;;;;;;15.57;4.63;;;;;;;;;;5025915;28;20797;-85
2022/06/16 08:26:40;;;;;;;9.80;4.83;;;;;;;;;;5023508;28;20645;-86
2022/06/16 08:29:07;;;;;;;7.50;4.53;;;;;;;;;;5023098;28;20443;-85
2022/06/16 08:31:33;;;;;;;20.93;6.47;;;;;;;;;;5005397;28;20423;-88
2022/06/16 08:34:00;;;;;;;5.70;3.67;;;;;;;;;;5024774;28;20403;-86
2022/06/16 08:36:26;;;;;;;5.73;3.90;;;;;;;;;;5005288;28;20415;-86
2022/06/16 08:38:52;;;;;;;3.87;3.47;;;;;;;;;;5005542;28;20427;-86
2022/06/16 08:41:23;;;;;;;7.53;3.97;;;;;;;;;;5008041;28;20429;-85
2022/06/16 08:43:54;;;;;;;6.63;3.80;;;;;;;;;;4986345;28;20459;-86
2022/06/16 08:46:21;;;;;;;6.97;4.20;;;;;;;;;;5024252;28;20408;-84
2022/06/16 08:48:51;;;;;;;8.20;4.20;;;;;;;;;;5025825;28;20419;-88
2022/06/16 08:51:24;;;;;;;6.43;3.83;;;;;;;;;;5005332;28;20490;-84
2022/06/16 08:53:50;;;;;;;7.00;3.80;;;;;;;;;;5022648;28;20443;-86
2022/06/16 08:56:22;;;;;;;8.00;4.00;;;;;;;;;;5023600;28;20426;-86
2022/06/16 08:58:57;;;;;;;9.23;4.60;;;;;;;;;;5004598;28;20438;-87
2022/06/16 09:01:29;;;;;;;7.07;3.97;;;;;;;;;;5005933;28;20414;-84
2022/06/16 09:04:02;;;;;;;7.70;4.30;;;;;;;;;;5004844;28;20415;-86
2022/06/16 09:06:43;;;;;;;7.83;4.13;;;;;;;;;;5022684;28;20407;-87
2022/06/16 09:12:15;;;;;;;8.30;3.87;;;;;;;;;;5024173;28;20478;-88
2022/06/16 09:15:13;;;;;;;8.47;3.93;;;;;;;;;;5029620;28;20412;-85
2022/06/16 09:17:42;;;;;;;4.53;3.60;;;;;;;;;;5007558;28;20412;-86
2022/06/16 09:20:08;;;;;;;10.77;4.07;;;;;;;;;;5019582;28;20771;-87
2022/06/16 09:22:53;;;;;;;10.40;4.23;;;;;;;;;;5001695;28;20468;-86
2022/06/16 09:25:22;;;;;;;7.33;4.70;;;;;;;;;;5004616;28;20976;-89
2022/06/16 09:27:55;;;;;;;9.67;4.83;;;;;;;;;;5021219;28;20438;-87
2022/06/16 09:30:24;;;;;;;7.70;3.80;;;;;;;;;;5025261;22;21019;-84
2022/06/16 09:32:56;;;;;;;10.40;4.30;;;;;;;;;;5004059;28;20456;-83
2022/06/16 09:35:22;;;;;;;8.53;4.87;;;;;;;;;;5005202;28;20455;-84
2022/06/16 09:37:56;;;;;;;10.80;4.00;;;;;;;;;;4994340;28;20421;-84
2022/06/16 09:40:48;;;;;;;7.30;3.70;;;;;;;;;;4989905;28;20436;-83
2022/06/16 09:43:28;;;;;;;8.20;4.17;;;;;;;;;;4961871;28;20448;-84
2022/06/16 09:45:54;;;;;;;6.83;4.13;;;;;;;;;;5001740;28;20626;-85
2022/06/16 09:48:24;;;;;;;8.10;4.20;;;;;;;;;;5002276;28;20420;-84
2022/06/16 09:50:59;;;;;;;10.70;3.93;;;;;;;;;;5008936;28;20464;-84
2022/06/16 09:53:35;;;;;;;11.70;4.43;;;;;;;;;;4990418;28;20448;-86
2022/06/16 09:56:04;;;;;;;12.47;5.10;;;;;;;;;;4989058;28;20401;-85
2022/06/16 09:58:40;;;;;;;4.83;3.70;;;;;;;;;;4993051;28;20436;-85
2022/06/16 10:01:08;;;;;;;13.30;4.90;;;;;;;;;;4990435;28;20428;-85
2022/06/16 10:03:37;;;;;;;7.83;5.03;;;;;;;;;;4986607;28;20904;-84
2022/06/16 10:06:10;;;;;;;4.70;4.20;;;;;;;;;;5006985;28;20412;-85
2022/06/16 10:08:54;;;;;;;12.67;4.60;;;;;;;;;;5005468;28;20416;-85
2022/06/16 10:11:34;;;;;;;6.13;4.53;;;;;;;;;;5006318;28;20776;-85
2022/06/16 10:14:15;;;;;;;6.33;4.20;;;;;;;;;;4993963;28;20452;-84
2022/06/16 10:16:50;;;;;;;7.23;3.87;;;;;;;;;;4984600;28;20432;-85
2022/06/16 10:19:17;;;;;;;6.93;3.90;;;;;;;;;;5001349;28;20427;-85
2022/06/16 10:21:43;;;;;;;9.17;4.00;;;;;;;;;;4986552;28;20404;-87
2022/06/16 10:24:09;;;;;;;8.40;3.73;;;;;;;;;;4999946;28;20496;-85
2022/06/16 10:26:36;;;;;;;6.07;3.80;;;;;;;;;;4992126;28;20968;-84
2022/06/16 10:29:02;;;;;;;7.03;3.10;;;;;;;;;;4986495;28;20432;-84
2022/06/16 10:31:36;;;;;;;6.53;4.47;;;;;;;;;;4994356;28;20908;-82
2022/06/16 10:34:02;;;;;;;7.13;4.00;;;;;;;;;;4997619;28;21034;-84
2022/06/16 10:36:28;;;;;;;13.23;4.73;;;;;;;;;;4985109;28;20483;-84
2022/06/16 10:39:07;;;;;;;11.13;5.97;;;;;;;;;;4984006;28;20412;-86
2022/06/16 10:41:36;;;;;;;14.43;7.37;;;;;;;;;;4986922;28;20420;-85
2022/06/16 10:44:04;;;;;;;11.03;7.80;;;;;;;;;;4992595;28;20924;-84
2022/06/16 10:46:35;;;;;;;17.07;9.87;;;;;;;;;;4985409;28;20424;-84
2022/06/16 10:49:04;;;;;;;10.50;7.50;;;;;;;;;;4989915;28;20853;-85
2022/06/16 10:51:31;;;;;;;13.40;6.47;;;;;;;;;;4991056;28;20439;-85
2022/06/16 10:54:02;;;;;;;9.00;6.50;;;;;;;;;;4991463;28;20460;-85
2022/06/16 10:56:28;;;;;;;9.73;5.53;;;;;;;;;;4988862;28;20452;-85
2022/06/16 10:58:57;;;;;;;12.57;6.73;;;;;;;;;;4980041;28;20421;-85
2022/06/16 11:01:23;;;;;;;14.60;7.27;;;;;;;;;;4999258;28;20471;-85
2022/06/16 11:03:51;;;;;;;8.83;6.97;;;;;;;;;;4997264;28;20433;-84
2022/06/16 11:06:19;;;;;;;7.50;5.67;;;;;;;;;;4988069;28;20412;-85
2022/06/16 11:08:47;;;;;;;9.10;5.40;;;;;;;;;;4996236;28;20486;-85
2022/06/16 11:11:16;;;;;;;7.53;5.20;;;;;;;;;;5007276;28;20447;-85
2022/06/16 11:13:54;;;;;;;7.23;5.33;;;;;;;;;;5004401;28;20459;-85
2022/06/16 11:16:31;;;;;;;16.20;4.87;;;;;;;;;;5009133;28;20426;-83
2022/06/16 11:18:59;;;;;;;8.23;5.10;;;;;;;;;;4986542;28;20445;-85
2022/06/16 11:21:30;;;;;;;9.13;4.00;;;;;;;;;;4982005;28;20802;-84
2022/06/16 11:23:58;;;;;;;11.47;4.40;;;;;;;;;;4980389;28;20425;-85
2022/06/16 11:26:24;;;;;;;7.07;4.53;;;;;;;;;;4993931;28;20427;-85
2022/06/16 11:29:19;;;;;;;6.97;4.70;;;;;;;;;;5005473;28;20404;-84
2022/06/16 11:31:47;;;;;;;5.13;3.87;;;;;;;;;;4987585;28;20785;-84
2022/06/16 11:34:24;;;;;;;6.43;4.00;;;;;;;;;;4987249;28;20429;-86
2022/06/16 11:36:58;;;;;;;9.07;4.50;;;;;;;;;;4995498;28;20459;-85
2022/06/16 11:39:33;;;;;;;8.93;5.43;;;;;;;;;;4987495;28;20811;-84
2022/06/16 11:41:59;;;;;;;7.77;5.07;;;;;;;;;;4987573;28;20421;-84
2022/06/16 11:44:50;;;;;;;7.47;4.13;;;;;;;;;;5001976;28;20495;-85
2022/06/16 11:47:19;;;;;;;11.90;4.90;;;;;;;;;;5005733;28;20416;-83
2022/06/16 11:49:48;;;;;;;7.27;4.63;;;;;;;;;;5006499;28;20431;-84
2022/06/16 11:52:20;;;;;;;8.50;5.07;;;;;;;;;;4999172;28;20456;-83
2022/06/16 11:54:53;;;;;;;9.37;5.47;;;;;;;;;;4989568;28;20428;-83
2022/06/16 11:57:26;;;;;;;8.90;4.10;;;;;;;;;;4999789;28;20415;-84
2022/06/16 12:00:11;;;;;;;6.20;4.40;;;;;;;;;;4982558;28;20441;-84
2022/06/16 12:02:56;;;;;;;8.30;4.20;;;;;;;;;;4983465;28;20425;-84
2022/06/16 12:05:33;;;;;;;7.40;4.07;;;;;;;;;;4986110;28;20790;-84
2022/06/16 12:08:02;;;;;;;5.70;4.00;;;;;;;;;;4984716;28;20788;-84
2022/06/16 12:10:28;;;;;;;8.33;4.73;;;;;;;;;;5001218;28;20452;-84
2022/06/16 12:13:12;;;;;;;5.83;4.07;;;;;;;;;;5000977;28;20562;-83
2022/06/16 12:15:38;;;;;;;9.00;4.13;;;;;;;;;;4992700;28;20455;-84
2022/06/16 12:18:07;;;;;;;8.23;3.87;;;;;;;;;;4998939;28;20425;-84
2022/06/16 12:20:38;;;;;;;6.50;4.57;;;;;;;;;;4979688;28;20444;-84
2022/06/16 12:23:04;;;;;;;4.90;3.60;;;;;;;;;;5000663;28;20511;-84
2022/06/16 12:25:38;;;;;;;8.93;4.17;;;;;;;;;;5002119;28;20416;-83
2022/06/16 12:28:22;;;;;;;19.20;5.03;;;;;;;;;;5001504;28;20451;-82
2022/06/16 12:31:00;;;;;;;7.00;4.33;;;;;;;;;;4981743;28;20460;-84
2022/06/16 12:33:31;;;;;;;4.20;3.80;;;;;;;;;;4982277;28;20543;-83
2022/06/16 12:36:18;;;;;;;5.93;3.70;;;;;;;;;;4986172;28;20408;-83
2022/06/16 12:38:47;;;;;;;9.37;4.57;;;;;;;;;;5001866;28;20450;-86
2022/06/16 12:41:17;;;;;;;5.53;3.97;;;;;;;;;;4982903;28;20510;-83
2022/06/16 12:43:44;;;;;;;8.00;4.43;;;;;;;;;;5001217;28;20454;-83
2022/06/16 12:46:24;;;;;;;7.63;3.97;;;;;;;;;;4981952;28;20424;-85
2022/06/16 12:49:21;;;;;;;5.23;4.00;;;;;;;;;;5001359;28;20391;-83
2022/06/16 12:51:53;;;;;;;6.50;3.90;;;;;;;;;;4979131;28;20424;-83
2022/06/16 12:54:29;;;;;;;4.30;3.90;;;;;;;;;;4984261;28;20393;-83
2022/06/16 12:57:03;;;;;;;4.67;3.80;;;;;;;;;;5001343;28;20408;-82
2022/06/16 12:59:42;;;;;;;7.80;4.40;;;;;;;;;;5000029;28;20435;-82
2022/06/16 13:02:14;;;;;;;8.00;4.87;;;;;;;;;;4999999;28;20426;-85
2022/06/16 13:04:41;;;;;;;7.17;4.53;;;;;;;;;;4996460;28;20499;-82
2022/06/16 13:07:15;;;;;;;5.13;3.70;;;;;;;;;;4965051;28;20910;-82
2022/06/16 13:09:42;;;;;;;7.57;3.30;;;;;;;;;;4986496;28;20468;-83
2022/06/16 13:12:17;;;;;;;6.23;3.30;;;;;;;;;;4985556;28;20536;-83
2022/06/16 13:15:10;;;;;;;3.53;2.97;;;;;;;;;;4989905;28;20412;-83
2022/06/16 13:17:45;;;;;;;4.50;2.83;;;;;;;;;;4998849;28;20782;-83
2022/06/16 13:20:13;;;;;;;4.13;3.10;;;;;;;;;;5004736;28;20431;-83
2022/06/16 13:22:44;;;;;;;4.00;3.00;;;;;;;;;;5005486;28;20531;-82
2022/06/16 13:25:12;;;;;;;4.37;2.80;;;;;;;;;;4994785;28;20424;-83
2022/06/16 13:27:38;;;;;;;4.27;3.80;;;;;;;;;;5004515;28;20459;-84
2022/06/16 13:30:07;;;;;;;5.50;3.10;;;;;;;;;;5001208;28;20456;-83
2022/06/16 13:32:33;;;;;;;4.13;3.13;;;;;;;;;;4994057;28;20507;-84
2022/06/16 13:35:00;;;;;;;8.83;3.83;;;;;;;;;;5007961;28;20408;-83
2022/06/16 13:37:34;;;;;;;7.63;4.13;;;;;;;;;;4996900;28;20409;-83
2022/06/16 13:40:06;;;;;;;7.63;3.57;;;;;;;;;;5000400;28;20447;-83
2022/06/16 13:42:51;;;;;;;7.20;3.10;;;;;;;;;;4988825;28;20425;-83
2022/06/16 13:45:20;;;;;;;5.70;3.37;;;;;;;;;;4988053;28;20528;-83
2022/06/16 13:47:47;;;;;;;4.83;3.30;;;;;;;;;;4996713;28;20417;-83
2022/06/16 13:50:40;;;;;;;3.67;3.00;;;;;;;;;;4987879;28;20815;-84
2022/06/16 13:53:07;;;;;;;4.97;2.73;;;;;;;;;;4994502;28;20487;-83
2022/06/16 13:55:34;;;;;;;6.30;3.60;;;;;;;;;;4994888;28;20421;-84
2022/06/16 13:58:21;;;;;;;4.70;3.13;;;;;;;;;;4991279;28;20423;-85
2022/06/16 14:01:02;;;;;;;7.57;3.80;;;;;;;;;;4997493;28;20522;-83
2022/06/16 14:03:29;;;;;;;5.13;3.73;;;;;;;;;;4971903;28;20451;-83
2022/06/16 14:05:56;;;;;;;7.10;3.70;;;;;;;;;;4986819;28;20417;-84
2022/06/16 14:08:24;;;;;;;5.13;3.07;;;;;;;;;;4984380;28;20421;-83
2022/06/16 14:10:54;;;;;;;7.93;2.90;;;;;;;;;;4987809;28;20472;-83
2022/06/16 14:13:25;;;;;;;5.43;2.83;;;;;;;;;;4962171;28;20765;-83
2022/06/16 14:15:51;;;;;;;4.17;3.03;;;;;;;;;;4985550;28;20412;-83
2022/06/16 14:18:27;;;;;;;5.73;3.43;;;;;;;;;;4983208;28;20401;-83
2022/06/16 14:20:56;;;;;;;5.23;3.10;;;;;;;;;;4996145;28;20439;-84
2022/06/16 14:23:24;;;;;;;6.63;3.73;;;;;;;;;;5000021;28;20424;-84
2022/06/16 14:25:53;;;;;;;6.83;3.47;;;;;;;;;;4992318;28;20428;-82
2022/06/16 14:28:24;;;;;;;5.20;3.50;;;;;;;;;;5002133;28;20407;-82
2022/06/16 14:30:53;;;;;;;5.87;3.30;;;;;;;;;;4987671;28;20461;-82
2022/06/16 14:33:24;;;;;;;8.40;3.33;;;;;;;;;;4996496;28;20519;-83
2022/06/16 14:35:52;;;;;;;7.17;3.43;;;;;;;;;;4996863;28;20420;-84
2022/06/16 14:38:26;;;;;;;5.40;2.87;;;;;;;;;;4968838;28;20791;-85
2022/06/16 14:40:54;;;;;;;4.80;3.20;;;;;;;;;;4989549;28;20441;-82
2022/06/16 14:43:22;;;;;;;9.50;2.77;;;;;;;;;;4990713;28;20949;-83
2022/06/16 14:46:11;;;;;;;6.47;3.10;;;;;;;;;;4964671;28;20445;-83
2022/06/16 14:48:39;;;;;;;8.30;3.20;;;;;;;;;;4985603;28;20412;-83
2022/06/16 14:51:11;;;;;;;4.90;3.40;;;;;;;;;;4992111;28;20440;-83
2022/06/16 14:53:39;;;;;;;5.53;2.77;;;;;;;;;;5001080;28;20447;-83
2022/06/16 14:56:10;;;;;;;5.57;2.40;;;;;;;;;;4988260;28;20425;-83
2022/06/16 14:59:02;;;;;;;4.10;2.30;;;;;;;;;;4983243;28;20401;-82
2022/06/16 15:01:33;;;;;;;4.37;2.60;;;;;;;;;;4993943;28;20441;-82
2022/06/16 15:04:00;;;;;;;4.07;2.47;;;;;;;;;;4979707;28;20859;-83
2022/06/16 15:06:26;;;;;;;5.03;3.30;;;;;;;;;;4968994;28;20934;-83
2022/06/16 15:09:00;;;;;;;5.33;2.60;;;;;;;;;;4983503;28;20519;-82
2022/06/16 15:11:28;;;;;;;5.57;2.80;;;;;;;;;;4983660;28;20437;-83
2022/06/16 15:13:57;;;;;;;5.67;3.20;;;;;;;;;;4990351;28;20460;-83
2022/06/16 15:19:11;;;;;;;5.93;3.23;;;;;;;;;;4989674;28;20400;-83
2022/06/16 15:21:38;;;;;;;4.73;3.00;;;;;;;;;;5001037;28;20428;-84